createdAt,value
2018-11-05T00:01:21.078Z,7.70
2018-11-05T00:04:23.991Z,7.70
2018-11-05T00:07:26.911Z,7.60
2018-11-05T00:10:29.794Z,7.60
2018-11-05T00:13:32.756Z,7.40
2018-11-05T00:16:35.880Z,7.40
2018-11-05T00:19:38.890Z,7.40
2018-11-05T00:22:41.924Z,7.40
2018-11-05T00:25:44.889Z,7.50
2018-11-05T00:28:47.841Z,7.50
2018-11-05T00:31:50.762Z,7.30
2018-11-05T00:34:53.713Z,7.30
2018-11-05T00:37:56.625Z,7.30
2018-11-05T00:40:59.545Z,7.40
2018-11-05T00:44:02.543Z,7.40
2018-11-05T00:47:05.640Z,7.30
2018-11-05T00:50:11.413Z,7.20
2018-11-05T00:53:14.326Z,7.30
2018-11-05T00:56:17.256Z,7.30
2018-11-05T00:59:20.253Z,7.40
2018-11-05T01:02:23.210Z,7.40
2018-11-05T01:05:26.145Z,7.40
2018-11-05T01:08:29.101Z,7.50
2018-11-05T01:11:32.087Z,7.40
2018-11-05T01:14:35.000Z,7.30
2018-11-05T01:17:38.377Z,7.20
2018-11-05T01:20:41.332Z,7.10
2018-11-05T01:23:44.309Z,7.10
2018-11-05T01:26:47.209Z,7.10
2018-11-05T01:29:50.114Z,7.00
2018-11-05T01:32:53.054Z,7.10
2018-11-05T01:35:55.975Z,7.00
2018-11-05T01:38:58.930Z,7.20
2018-11-05T01:42:01.964Z,7.30
2018-11-05T01:45:06.666Z,7.40
2018-11-05T01:48:09.620Z,7.40
2018-11-05T01:51:12.748Z,7.50
2018-11-05T01:54:15.689Z,7.50
2018-11-05T01:57:18.601Z,7.50
2018-11-05T02:00:21.620Z,7.50
2018-11-05T02:03:24.549Z,7.40
2018-11-05T02:06:27.498Z,7.30
2018-11-05T02:09:30.421Z,7.20
2018-11-05T02:12:33.351Z,7.20
2018-11-05T02:15:36.266Z,7.20
2018-11-05T02:18:39.181Z,7.30
2018-11-05T02:21:42.143Z,7.40
2018-11-05T02:24:45.127Z,7.40
2018-11-05T02:27:48.156Z,7.40
2018-11-05T02:30:51.689Z,7.40
2018-11-05T02:33:54.622Z,7.50
2018-11-05T02:36:57.553Z,7.40
2018-11-05T02:43:12.683Z,7.30
2018-11-05T02:46:15.605Z,7.20
2018-11-05T02:49:18.538Z,7.30
2018-11-05T02:52:21.520Z,7.30
2018-11-05T02:55:24.495Z,7.30
2018-11-05T02:58:27.914Z,7.40
2018-11-05T03:01:30.892Z,7.40
2018-11-05T03:04:33.821Z,7.40
2018-11-05T03:07:36.770Z,7.40
2018-11-05T03:10:39.705Z,7.40
2018-11-05T03:13:42.583Z,7.40
2018-11-05T03:16:45.561Z,7.40
2018-11-05T03:19:48.498Z,7.50
2018-11-05T03:22:51.481Z,7.50
2018-11-05T03:25:54.409Z,7.40
2018-11-05T03:28:57.431Z,7.40
2018-11-05T03:32:00.398Z,7.30
2018-11-05T03:35:03.914Z,7.30
2018-11-05T03:38:06.882Z,7.30
2018-11-05T03:41:09.801Z,7.30
2018-11-05T03:44:12.772Z,7.40
2018-11-05T03:47:15.697Z,7.30
2018-11-05T03:50:18.721Z,7.40
2018-11-05T03:53:21.705Z,7.40
2018-11-05T03:56:24.847Z,7.40
2018-11-05T03:59:27.733Z,7.40
2018-11-05T04:02:30.669Z,7.40
2018-11-05T04:05:33.582Z,7.40
2018-11-05T04:08:36.505Z,7.40
2018-11-05T04:11:39.449Z,7.50
2018-11-05T04:14:42.378Z,7.40
2018-11-05T04:17:45.316Z,7.40
2018-11-05T04:20:48.225Z,7.50
2018-11-05T04:23:51.121Z,7.50
2018-11-05T04:26:54.081Z,7.30
2018-11-05T04:29:57.014Z,7.40
2018-11-05T04:32:59.973Z,7.40
2018-11-05T04:36:02.934Z,7.40
2018-11-05T04:39:11.856Z,7.40
2018-11-05T04:42:14.810Z,7.40
2018-11-05T04:45:17.745Z,7.40
2018-11-05T04:48:20.629Z,7.40
2018-11-05T04:51:23.541Z,7.40
2018-11-05T04:54:26.504Z,7.40
2018-11-05T04:57:29.493Z,7.40
2018-11-05T05:00:32.413Z,7.40
2018-11-05T05:03:35.403Z,7.30
2018-11-05T05:06:38.310Z,7.20
2018-11-05T05:09:41.283Z,7.30
2018-11-05T05:12:44.287Z,7.30
2018-11-05T05:15:47.206Z,7.20
2018-11-05T05:18:50.145Z,7.30
2018-11-05T05:21:53.096Z,7.30
2018-11-05T05:24:56.300Z,7.30
2018-11-05T05:27:59.202Z,7.30
2018-11-05T05:31:02.183Z,7.30
2018-11-05T05:34:05.653Z,7.30
2018-11-05T05:37:08.641Z,7.20
2018-11-05T05:40:11.621Z,7.30
2018-11-05T05:43:14.513Z,7.30
2018-11-05T05:46:17.485Z,7.30
2018-11-05T05:49:20.521Z,7.10
2018-11-05T05:52:23.505Z,7.10
2018-11-05T05:55:26.434Z,7.20
2018-11-05T05:58:29.404Z,7.20
2018-11-05T06:01:32.418Z,7.20
2018-11-05T06:04:35.345Z,7.10
2018-11-05T06:07:38.968Z,7.20
2018-11-05T06:10:41.956Z,7.10
2018-11-05T06:13:44.935Z,7.10
2018-11-05T06:16:47.897Z,7.10
2018-11-05T06:19:50.822Z,7.00
2018-11-05T06:22:53.765Z,6.90
2018-11-05T06:25:56.725Z,7.00
2018-11-05T06:28:59.716Z,6.90
2018-11-05T06:32:02.691Z,6.90
2018-11-05T06:35:06.550Z,6.90
2018-11-05T06:38:09.475Z,7.00
2018-11-05T06:41:12.444Z,7.00
2018-11-05T06:44:15.516Z,6.90
2018-11-05T06:47:18.348Z,7.00
2018-11-05T06:50:23.434Z,7.00
2018-11-05T06:53:26.404Z,7.10
2018-11-05T06:56:29.351Z,7.10
2018-11-05T06:59:32.305Z,7.10
2018-11-05T07:02:35.314Z,7.00
2018-11-05T07:05:38.325Z,7.10
2018-11-05T07:08:41.224Z,7.10
2018-11-05T07:11:44.207Z,7.20
2018-11-05T07:14:47.208Z,7.20
2018-11-05T07:17:50.163Z,7.20
2018-11-05T07:20:53.106Z,7.20
2018-11-05T07:23:56.011Z,7.20
2018-11-05T07:26:58.989Z,7.20
2018-11-05T07:30:02.362Z,7.30
2018-11-05T07:33:05.579Z,7.20
2018-11-05T07:36:08.529Z,7.40
2018-11-05T07:39:12.285Z,7.40
2018-11-05T07:42:15.225Z,7.40
2018-11-05T07:45:19.592Z,7.40
2018-11-05T07:48:22.526Z,7.40
2018-11-05T07:51:25.456Z,7.40
2018-11-05T07:54:28.419Z,7.70
2018-11-05T07:57:31.358Z,8.00
2018-11-05T08:00:40.200Z,7.80
2018-11-05T08:03:43.168Z,7.80
2018-11-05T08:06:46.100Z,7.80
2018-11-05T08:09:49.092Z,7.80
2018-11-05T08:12:52.020Z,7.80
2018-11-05T08:15:54.998Z,7.80
2018-11-05T08:18:57.926Z,7.80
2018-11-05T08:22:01.061Z,7.80
2018-11-05T08:25:04.054Z,7.90
2018-11-05T08:28:07.018Z,8.00
2018-11-05T08:31:09.949Z,8.00
2018-11-05T08:34:12.972Z,8.00
2018-11-05T08:37:15.880Z,8.10
2018-11-05T08:40:21.326Z,8.10
2018-11-05T08:43:24.266Z,8.10
2018-11-05T08:46:27.209Z,8.00
2018-11-05T08:49:30.110Z,8.00
2018-11-05T08:52:33.025Z,8.10
2018-11-05T08:55:35.956Z,8.10
2018-11-05T08:58:38.869Z,8.20
2018-11-05T09:01:41.910Z,8.20
2018-11-05T09:04:44.916Z,8.30
2018-11-05T09:07:48.623Z,8.30
2018-11-05T09:10:51.955Z,8.40
2018-11-05T09:13:55.402Z,8.50
2018-11-05T09:16:58.422Z,8.60
2018-11-05T09:20:01.358Z,8.60
2018-11-05T09:23:04.917Z,8.70
2018-11-05T09:26:07.856Z,8.70
2018-11-05T09:29:10.798Z,8.80
2018-11-05T09:32:13.721Z,8.80
2018-11-05T09:35:16.805Z,8.90
2018-11-05T09:38:19.745Z,8.90
2018-11-05T09:41:22.672Z,9.00
2018-11-05T09:44:25.546Z,9.10
2018-11-05T09:47:28.504Z,9.20
2018-11-05T09:50:31.527Z,9.30
2018-11-05T09:53:34.446Z,9.30
2018-11-05T09:56:37.449Z,9.40
2018-11-05T09:59:40.981Z,9.40
2018-11-05T10:02:49.563Z,9.50
2018-11-05T10:05:52.456Z,9.60
2018-11-05T10:08:55.471Z,9.60
2018-11-05T10:11:58.382Z,9.60
2018-11-05T10:15:01.298Z,9.70
2018-11-05T10:18:04.337Z,9.70
2018-11-05T10:21:07.335Z,9.80
2018-11-05T10:24:10.294Z,9.80
2018-11-05T10:27:13.244Z,9.90
2018-11-05T10:30:18.862Z,10.10
2018-11-05T10:33:21.829Z,10.10
2018-11-05T10:36:24.760Z,10.00
2018-11-05T10:39:27.768Z,10.10
2018-11-05T10:42:30.702Z,10.10
2018-11-05T10:45:33.663Z,10.00
2018-11-05T10:48:36.721Z,10.10
2018-11-05T10:51:39.752Z,10.10
2018-11-05T10:54:42.651Z,10.20
2018-11-05T10:57:45.890Z,10.10
2018-11-05T11:00:54.494Z,10.30
2018-11-05T11:04:03.101Z,10.20
2018-11-05T11:07:05.991Z,10.40
2018-11-05T11:10:08.937Z,10.50
2018-11-05T11:13:11.882Z,10.50
2018-11-05T11:16:14.849Z,10.50
2018-11-05T11:19:17.804Z,10.60
2018-11-05T11:22:20.741Z,10.60
2018-11-05T11:25:23.669Z,10.70
2018-11-05T11:28:26.683Z,10.90
2018-11-05T11:31:29.478Z,10.90
2018-11-05T11:34:32.441Z,10.90
2018-11-05T11:37:35.390Z,11.00
2018-11-05T11:40:38.337Z,11.00
2018-11-05T11:43:41.299Z,11.10
2018-11-05T11:46:44.194Z,11.10
2018-11-05T11:49:47.510Z,11.40
2018-11-05T11:52:50.993Z,11.40
2018-11-05T11:55:54.064Z,11.50
2018-11-05T11:58:57.040Z,11.50
2018-11-05T12:02:06.007Z,11.50
2018-11-05T12:05:09.639Z,11.60
2018-11-05T12:08:13.067Z,11.70
2018-11-05T12:11:16.279Z,12.50
2018-11-05T12:14:19.381Z,12.20
2018-11-05T12:17:22.573Z,11.90
2018-11-05T12:20:26.036Z,11.70
2018-11-05T12:23:28.878Z,11.70
2018-11-05T12:26:32.244Z,11.70
2018-11-05T12:29:35.207Z,11.70
2018-11-05T12:32:38.459Z,11.80
2018-11-05T12:35:41.688Z,11.90
2018-11-05T12:38:44.671Z,11.90
2018-11-05T12:41:47.564Z,11.90
2018-11-05T12:44:50.520Z,11.90
2018-11-05T12:47:53.414Z,12.00
2018-11-05T12:50:56.345Z,12.00
2018-11-05T12:53:59.346Z,11.80
2018-11-05T12:57:02.316Z,11.80
2018-11-05T13:00:09.386Z,11.90
2018-11-05T13:03:12.306Z,11.90
2018-11-05T13:06:15.257Z,11.90
2018-11-05T13:09:18.185Z,11.90
2018-11-05T13:12:21.088Z,11.90
2018-11-05T13:15:24.062Z,11.90
2018-11-05T13:18:26.993Z,11.90
2018-11-05T13:21:29.946Z,11.90
2018-11-05T13:24:32.896Z,11.90
2018-11-05T13:27:35.883Z,11.90
2018-11-05T13:30:38.826Z,11.80
2018-11-05T13:33:41.742Z,11.70
2018-11-05T13:36:44.805Z,11.70
2018-11-05T13:39:47.691Z,11.80
2018-11-05T13:42:51.248Z,11.70
2018-11-05T13:45:54.896Z,11.70
2018-11-05T13:48:57.838Z,11.60
2018-11-05T13:52:00.264Z,11.60
2018-11-05T13:55:03.401Z,11.70
2018-11-05T13:58:06.192Z,11.70
2018-11-05T14:01:09.117Z,11.60
2018-11-05T14:04:12.148Z,11.60
2018-11-05T14:07:15.117Z,11.60
2018-11-05T14:10:20.476Z,11.60
2018-11-05T14:13:23.401Z,11.60
2018-11-05T14:16:26.365Z,11.50
2018-11-05T14:19:29.233Z,11.50
2018-11-05T14:22:32.163Z,11.50
2018-11-05T14:25:35.210Z,11.50
2018-11-05T14:28:38.394Z,11.50
2018-11-05T14:31:41.111Z,11.40
2018-11-05T14:34:44.052Z,11.50
2018-11-05T14:37:47.029Z,11.40
2018-11-05T14:40:50.024Z,11.40
2018-11-05T14:43:52.933Z,11.30
2018-11-05T14:46:55.905Z,11.20
2018-11-05T14:49:58.859Z,11.20
2018-11-05T14:53:01.751Z,11.20
2018-11-05T14:56:05.390Z,11.10
2018-11-05T14:59:08.359Z,11.10
2018-11-05T15:02:16.899Z,11.10
2018-11-05T15:05:19.957Z,11.10
2018-11-05T15:08:22.853Z,11.00
2018-11-05T15:11:25.887Z,11.00
2018-11-05T15:14:28.823Z,11.00
2018-11-05T15:17:31.789Z,10.90
2018-11-05T15:20:34.768Z,10.90
2018-11-05T15:23:37.740Z,10.90
2018-11-05T15:26:40.727Z,10.80
2018-11-05T15:29:43.624Z,10.80
2018-11-05T15:32:46.653Z,10.80
2018-11-05T15:35:49.549Z,10.80
2018-11-05T15:38:52.502Z,10.80
2018-11-05T15:41:55.427Z,10.80
2018-11-05T15:44:58.359Z,10.70
2018-11-05T15:48:01.966Z,10.70
2018-11-05T15:51:05.118Z,10.70
2018-11-05T15:54:08.064Z,10.60
2018-11-05T15:57:10.946Z,10.60
2018-11-05T16:00:17.279Z,10.60
2018-11-05T16:03:20.330Z,10.60
2018-11-05T16:06:23.250Z,10.50
2018-11-05T16:09:26.245Z,10.50
2018-11-05T16:12:29.141Z,10.70
2018-11-05T16:15:32.101Z,10.90
2018-11-05T16:18:35.120Z,10.80
2018-11-05T16:21:38.090Z,10.60
2018-11-05T16:24:41.001Z,10.50
2018-11-05T16:27:44.155Z,10.50
2018-11-05T16:30:47.221Z,10.40
2018-11-05T16:33:49.989Z,10.50
2018-11-05T16:36:52.899Z,10.50
2018-11-05T16:39:55.850Z,10.40
2018-11-05T16:42:58.800Z,10.40
2018-11-05T16:46:01.692Z,10.30
2018-11-05T16:49:05.102Z,10.30
2018-11-05T16:52:08.813Z,10.40
2018-11-05T16:55:12.837Z,10.40
2018-11-05T16:58:15.779Z,10.40
2018-11-05T17:01:18.902Z,10.30
2018-11-05T17:04:21.672Z,10.40
2018-11-05T17:07:24.573Z,10.40
2018-11-05T17:10:28.278Z,10.40
2018-11-05T17:13:31.387Z,10.40
2018-11-05T17:16:34.333Z,10.30
2018-11-05T17:19:37.289Z,10.40
2018-11-05T17:22:46.946Z,10.40
2018-11-05T17:25:49.891Z,10.30
2018-11-05T17:28:52.837Z,10.30
2018-11-05T17:31:55.784Z,10.30
2018-11-05T17:34:58.674Z,10.20
2018-11-05T17:38:01.612Z,10.30
2018-11-05T17:41:05.319Z,10.20
2018-11-05T17:44:09.637Z,10.20
2018-11-05T17:47:12.577Z,10.20
2018-11-05T17:50:16.737Z,10.20
2018-11-05T17:53:19.740Z,10.20
2018-11-05T17:56:22.789Z,10.20
2018-11-05T17:59:25.733Z,10.20
2018-11-05T18:02:28.693Z,10.20
2018-11-05T18:05:31.629Z,10.10
2018-11-05T18:08:34.585Z,10.10
2018-11-05T18:11:37.546Z,10.10
2018-11-05T18:14:40.521Z,10.10
2018-11-05T18:17:44.365Z,10.00
2018-11-05T18:20:47.301Z,10.00
2018-11-05T18:23:50.293Z,10.10
2018-11-05T18:26:53.332Z,10.10
2018-11-05T18:29:56.302Z,10.00
2018-11-05T18:32:59.296Z,10.00
2018-11-05T18:36:02.299Z,10.00
2018-11-05T18:39:08.708Z,10.00
2018-11-05T18:42:11.993Z,10.00
2018-11-05T18:45:15.112Z,10.00
2018-11-05T18:48:18.066Z,10.00
2018-11-05T18:51:21.088Z,10.00
2018-11-05T18:54:24.128Z,10.00
2018-11-05T18:57:27.129Z,10.00
2018-11-05T19:00:30.066Z,9.90
2018-11-05T19:03:33.150Z,9.90
2018-11-05T19:06:36.058Z,9.90
2018-11-05T19:09:39.049Z,9.90
2018-11-05T19:12:42.050Z,9.90
2018-11-05T19:15:45.093Z,9.90
2018-11-05T19:18:48.156Z,9.90
2018-11-05T19:21:51.081Z,9.90
2018-11-05T19:24:54.103Z,9.90
2018-11-05T19:27:57.169Z,10.00
2018-11-05T19:31:00.225Z,9.90
2018-11-05T19:34:03.422Z,10.00
2018-11-05T19:37:06.837Z,10.00
2018-11-05T19:40:11.124Z,10.00
2018-11-05T19:43:14.135Z,10.10
2018-11-05T19:46:17.151Z,10.10
2018-11-05T19:49:20.492Z,10.00
2018-11-05T19:52:23.541Z,10.00
2018-11-05T19:55:26.607Z,10.00
2018-11-05T19:58:29.650Z,10.00
2018-11-05T20:01:32.636Z,10.00
2018-11-05T20:04:35.682Z,10.00
2018-11-05T20:07:38.675Z,10.00
2018-11-05T20:10:41.725Z,10.00
2018-11-05T20:13:44.694Z,9.90
2018-11-05T20:16:47.764Z,9.90
2018-11-05T20:19:50.753Z,9.90
2018-11-05T20:22:53.983Z,9.90
2018-11-05T20:25:56.872Z,9.90
2018-11-05T20:28:59.946Z,9.90
2018-11-05T20:32:03.222Z,9.90
2018-11-05T20:35:07.126Z,9.90
2018-11-05T20:38:10.188Z,9.90
2018-11-05T20:41:13.137Z,9.90
2018-11-05T20:44:16.135Z,9.90
2018-11-05T20:47:19.965Z,9.90
2018-11-05T20:50:23.237Z,9.90
2018-11-05T20:53:26.423Z,9.90
2018-11-05T20:56:29.992Z,9.90
2018-11-05T20:59:33.551Z,9.80
2018-11-05T21:02:37.074Z,9.90
2018-11-05T21:05:40.373Z,9.80
2018-11-05T21:08:43.980Z,9.80
2018-11-05T21:11:47.522Z,9.80
2018-11-05T21:14:50.852Z,9.80
2018-11-05T21:17:54.066Z,9.80
2018-11-05T21:20:57.387Z,9.80
2018-11-05T21:24:00.754Z,9.80
2018-11-05T21:27:04.093Z,9.80
2018-11-05T21:30:10.289Z,9.80
2018-11-05T21:33:13.433Z,9.80
2018-11-05T21:36:16.424Z,9.80
2018-11-05T21:39:19.585Z,9.80
2018-11-05T21:42:22.826Z,9.80
2018-11-05T21:45:26.013Z,9.90
2018-11-05T21:48:30.152Z,10.20
2018-11-05T21:51:33.903Z,10.00
2018-11-05T21:54:37.241Z,9.90
2018-11-05T21:57:45.403Z,10.00
2018-11-05T22:00:48.825Z,9.90
2018-11-05T22:03:52.486Z,9.90
2018-11-05T22:06:56.133Z,9.80
2018-11-05T22:10:00.025Z,9.70
2018-11-05T22:13:03.590Z,9.70
2018-11-05T22:16:06.803Z,9.70
2018-11-05T22:19:10.841Z,9.80
2018-11-05T22:22:13.765Z,9.70
2018-11-05T22:25:17.421Z,9.80
2018-11-05T22:28:20.460Z,9.80
2018-11-05T22:31:23.605Z,9.90
2018-11-05T22:34:27.020Z,9.80
2018-11-05T22:37:30.215Z,9.70
2018-11-05T22:40:33.156Z,9.70
2018-11-05T22:43:36.163Z,9.80
2018-11-05T22:46:39.079Z,9.80
2018-11-05T22:49:42.049Z,9.80
2018-11-05T22:52:44.945Z,9.80
2018-11-05T22:55:47.890Z,9.80
2018-11-05T22:58:50.798Z,9.80
2018-11-05T23:01:54.577Z,9.80
2018-11-05T23:04:57.458Z,9.80
2018-11-05T23:08:00.365Z,9.80
2018-11-05T23:11:03.336Z,9.80
2018-11-05T23:14:06.312Z,9.80
2018-11-05T23:17:09.294Z,9.90
2018-11-05T23:20:12.178Z,9.90
2018-11-05T23:23:15.223Z,9.90
2018-11-05T23:26:18.214Z,9.90
2018-11-05T23:29:21.167Z,9.90
2018-11-05T23:32:24.422Z,10.00
2018-11-05T23:35:27.326Z,10.00
2018-11-05T23:38:30.206Z,9.90
2018-11-05T23:41:33.079Z,9.90
2018-11-05T23:44:36.068Z,9.90
2018-11-05T23:47:39.087Z,9.90
2018-11-05T23:50:41.998Z,10.00
2018-11-05T23:53:44.904Z,10.00
2018-11-05T23:56:47.837Z,10.00
2018-11-05T23:59:50.936Z,10.00
